Main page
METAR-TAF:

METAR-TAF

Airports :

Damascus, Syria

Damascus International Airport

latitude: 33-25N, longitude: 036-31E, elevation: 608 m

Current weather observation

The report was made 58 minutes ago, at 13:00 UTC
Wind 6 kt from the North/Northeast
Temperature 17°C
Humidity 29%
Pressure 1015 hPa
Visibility 10 km or more
Scattered clouds at a height of 3000 ft

METAR: OSDI 241300Z 02006KT 9999 SCT030 17/M01 Q1015

Time: 15:58 (13:58 UTC)

Forecast

The report was made 3 hours and 58 minutes ago, at 10:00 UTC
Forecast valid from 24 at 12 UTC to 25 at 18 UTC
Wind 8 kt from the Southwest
Visibility 10 km or more
Few clouds at a height of 3000 ft
Scattered clouds at a height of 10000 ft
Temporary
from 24 at 18 UTC to 25 at 12 UTC
Wind 3 kt from variable directions
Visibility 10 km or more
no clouds below 1500 m and no cumulonimbus

TAF: OSDI 241000Z 2412/2518 22008KT 9999 FEW030 SCT100 TEMPO 2418/2512 VRB03KT CAVOK

Weather observations and forecasts of more than 4000 airports (METAR and TAF reports).

The available stations are represented by yellow and red dots on the map.

Hover mouse over dot to see the name of the station.

Then click to see weather observations and forecasts.

To change the map : click on the green buttons with a black cross to zoom in, on the green button with a dash to zoom out, or on the green arrows for adjacent maps.


METAR-TAF: